sensor_id;sensor_type;location;lat;lon;timestamp;temperature;humidity
24402;DHT22;12539;48.808;11.292;2022-07-21T00:00:34;26.90;48.40
24402;DHT22;12539;48.808;11.292;2022-07-21T00:03:00;26.90;48.50
24402;DHT22;12539;48.808;11.292;2022-07-21T00:05:27;26.90;48.50
24402;DHT22;12539;48.808;11.292;2022-07-21T00:07:53;26.90;48.60
24402;DHT22;12539;48.808;11.292;2022-07-21T00:10:21;27.00;48.60
24402;DHT22;12539;48.808;11.292;2022-07-21T00:12:48;27.00;48.80
24402;DHT22;12539;48.808;11.292;2022-07-21T00:15:15;27.00;48.80
24402;DHT22;12539;48.808;11.292;2022-07-21T00:17:41;27.00;48.90
24402;DHT22;12539;48.808;11.292;2022-07-21T00:20:08;26.90;48.80
24402;DHT22;12539;48.808;11.292;2022-07-21T00:22:34;26.90;49.10
24402;DHT22;12539;48.808;11.292;2022-07-21T00:25:00;26.70;49.20
24402;DHT22;12539;48.808;11.292;2022-07-21T00:27:26;26.70;49.50
24402;DHT22;12539;48.808;11.292;2022-07-21T00:29:52;26.60;49.70
24402;DHT22;12539;48.808;11.292;2022-07-21T00:32:17;26.50;50.00
24402;DHT22;12539;48.808;11.292;2022-07-21T00:34:43;26.30;50.40
24402;DHT22;12539;48.808;11.292;2022-07-21T00:37:12;26.20;50.70
24402;DHT22;12539;48.808;11.292;2022-07-21T00:39:38;26.10;50.90
24402;DHT22;12539;48.808;11.292;2022-07-21T00:42:04;26.10;51.30
24402;DHT22;12539;48.808;11.292;2022-07-21T00:44:30;26.00;51.80
24402;DHT22;12539;48.808;11.292;2022-07-21T00:46:56;25.80;52.70
24402;DHT22;12539;48.808;11.292;2022-07-21T00:49:22;25.70;53.50
24402;DHT22;12539;48.808;11.292;2022-07-21T00:51:49;25.50;55.10
24402;DHT22;12539;48.808;11.292;2022-07-21T00:54:16;25.30;56.30
24402;DHT22;12539;48.808;11.292;2022-07-21T00:56:43;25.00;57.00
24402;DHT22;12539;48.808;11.292;2022-07-21T00:59:08;24.80;57.30
24402;DHT22;12539;48.808;11.292;2022-07-21T01:01:35;24.60;57.40
24402;DHT22;12539;48.808;11.292;2022-07-21T01:04:01;24.40;57.60
24402;DHT22;12539;48.808;11.292;2022-07-21T01:06:26;24.30;58.00
24402;DHT22;12539;48.808;11.292;2022-07-21T01:08:53;24.30;58.40
24402;DHT22;12539;48.808;11.292;2022-07-21T01:11:20;24.30;58.30
24402;DHT22;12539;48.808;11.292;2022-07-21T01:13:47;24.30;57.90
24402;DHT22;12539;48.808;11.292;2022-07-21T01:16:13;24.40;57.50
24402;DHT22;12539;48.808;11.292;2022-07-21T01:18:40;24.50;57.70
24402;DHT22;12539;48.808;11.292;2022-07-21T01:21:28;24.60;57.60
24402;DHT22;12539;48.808;11.292;2022-07-21T01:23:54;24.70;57.80
24402;DHT22;12539;48.808;11.292;2022-07-21T01:26:20;24.70;57.90
24402;DHT22;12539;48.808;11.292;2022-07-21T01:28:46;24.60;58.50
24402;DHT22;12539;48.808;11.292;2022-07-21T01:31:12;24.60;58.70
24402;DHT22;12539;48.808;11.292;2022-07-21T01:33:37;24.50;59.00
24402;DHT22;12539;48.808;11.292;2022-07-21T01:36:03;24.50;59.20
24402;DHT22;12539;48.808;11.292;2022-07-21T01:38:29;24.50;59.40
24402;DHT22;12539;48.808;11.292;2022-07-21T01:41:13;24.40;59.10
24402;DHT22;12539;48.808;11.292;2022-07-21T01:43:54;24.50;58.80
24402;DHT22;12539;48.808;11.292;2022-07-21T01:46:20;24.50;58.50
24402;DHT22;12539;48.808;11.292;2022-07-21T01:48:46;24.60;57.90
24402;DHT22;12539;48.808;11.292;2022-07-21T01:51:12;24.70;58.30
24402;DHT22;12539;48.808;11.292;2022-07-21T01:53:38;24.70;58.50
24402;DHT22;12539;48.808;11.292;2022-07-21T01:56:05;24.70;58.50
24402;DHT22;12539;48.808;11.292;2022-07-21T01:58:31;24.70;58.50
24402;DHT22;12539;48.808;11.292;2022-07-21T02:00:57;24.70;58.60
24402;DHT22;12539;48.808;11.292;2022-07-21T02:03:23;24.70;59.10
24402;DHT22;12539;48.808;11.292;2022-07-21T02:05:49;24.70;58.60
24402;DHT22;12539;48.808;11.292;2022-07-21T02:08:14;24.70;58.40
24402;DHT22;12539;48.808;11.292;2022-07-21T02:10:40;24.60;58.90
24402;DHT22;12539;48.808;11.292;2022-07-21T02:13:06;24.60;58.80
24402;DHT22;12539;48.808;11.292;2022-07-21T02:15:31;24.60;59.00
24402;DHT22;12539;48.808;11.292;2022-07-21T02:17:58;24.60;59.30
24402;DHT22;12539;48.808;11.292;2022-07-21T02:20:25;24.50;59.40
24402;DHT22;12539;48.808;11.292;2022-07-21T02:22:51;24.50;59.30
24402;DHT22;12539;48.808;11.292;2022-07-21T02:25:17;24.50;59.00
24402;DHT22;12539;48.808;11.292;2022-07-21T02:27:44;24.50;58.60
24402;DHT22;12539;48.808;11.292;2022-07-21T02:30:11;24.60;58.30
24402;DHT22;12539;48.808;11.292;2022-07-21T02:32:37;24.60;58.80
24402;DHT22;12539;48.808;11.292;2022-07-21T02:35:03;24.60;59.00
24402;DHT22;12539;48.808;11.292;2022-07-21T02:37:29;24.60;58.90
24402;DHT22;12539;48.808;11.292;2022-07-21T02:39:55;24.70;59.10
24402;DHT22;12539;48.808;11.292;2022-07-21T02:42:21;24.60;59.40
24402;DHT22;12539;48.808;11.292;2022-07-21T02:44:46;24.50;59.60
24402;DHT22;12539;48.808;11.292;2022-07-21T02:47:12;24.50;59.60
24402;DHT22;12539;48.808;11.292;2022-07-21T02:49:38;24.50;59.30
24402;DHT22;12539;48.808;11.292;2022-07-21T02:52:04;24.50;59.20
24402;DHT22;12539;48.808;11.292;2022-07-21T02:54:30;24.50;58.80
24402;DHT22;12539;48.808;11.292;2022-07-21T02:56:56;24.60;58.60
24402;DHT22;12539;48.808;11.292;2022-07-21T02:59:22;24.60;58.10
24402;DHT22;12539;48.808;11.292;2022-07-21T03:01:47;24.70;57.70
24402;DHT22;12539;48.808;11.292;2022-07-21T03:04:13;24.80;57.50
24402;DHT22;12539;48.808;11.292;2022-07-21T03:06:39;24.80;57.20
24402;DHT22;12539;48.808;11.292;2022-07-21T03:09:05;24.80;56.90
24402;DHT22;12539;48.808;11.292;2022-07-21T03:11:31;24.90;57.10
24402;DHT22;12539;48.808;11.292;2022-07-21T03:13:56;25.00;57.60
24402;DHT22;12539;48.808;11.292;2022-07-21T03:16:22;25.00;57.60
24402;DHT22;12539;48.808;11.292;2022-07-21T03:18:48;25.00;57.30
24402;DHT22;12539;48.808;11.292;2022-07-21T03:21:13;25.00;57.10
24402;DHT22;12539;48.808;11.292;2022-07-21T03:23:39;25.00;57.20
24402;DHT22;12539;48.808;11.292;2022-07-21T03:26:11;25.00;57.50
24402;DHT22;12539;48.808;11.292;2022-07-21T03:28:37;25.00;57.70
24402;DHT22;12539;48.808;11.292;2022-07-21T03:31:03;24.90;58.00
24402;DHT22;12539;48.808;11.292;2022-07-21T03:33:28;24.90;58.40
24402;DHT22;12539;48.808;11.292;2022-07-21T03:35:54;24.90;58.70
24402;DHT22;12539;48.808;11.292;2022-07-21T03:38:21;24.80;58.70
24402;DHT22;12539;48.808;11.292;2022-07-21T03:40:47;24.80;59.30
24402;DHT22;12539;48.808;11.292;2022-07-21T03:43:13;24.80;59.70
24402;DHT22;12539;48.808;11.292;2022-07-21T03:45:38;24.80;59.60
24402;DHT22;12539;48.808;11.292;2022-07-21T03:48:06;24.80;59.70
24402;DHT22;12539;48.808;11.292;2022-07-21T03:50:32;24.80;59.90
24402;DHT22;12539;48.808;11.292;2022-07-21T03:52:59;24.80;60.20
24402;DHT22;12539;48.808;11.292;2022-07-21T03:55:25;24.80;60.60
24402;DHT22;12539;48.808;11.292;2022-07-21T03:57:52;24.70;60.50
24402;DHT22;12539;48.808;11.292;2022-07-21T04:00:30;24.80;60.50
24402;DHT22;12539;48.808;11.292;2022-07-21T04:02:57;24.80;60.80
24402;DHT22;12539;48.808;11.292;2022-07-21T04:05:23;24.80;60.60
24402;DHT22;12539;48.808;11.292;2022-07-21T04:07:51;24.80;60.70
24402;DHT22;12539;48.808;11.292;2022-07-21T04:10:20;24.80;60.80
24402;DHT22;12539;48.808;11.292;2022-07-21T04:12:48;24.80;61.00
24402;DHT22;12539;48.808;11.292;2022-07-21T04:15:14;24.80;61.20
24402;DHT22;12539;48.808;11.292;2022-07-21T04:17:40;24.80;60.80
24402;DHT22;12539;48.808;11.292;2022-07-21T04:20:07;24.80;60.90
24402;DHT22;12539;48.808;11.292;2022-07-21T04:22:33;24.80;61.10
24402;DHT22;12539;48.808;11.292;2022-07-21T04:24:59;24.80;60.90
24402;DHT22;12539;48.808;11.292;2022-07-21T04:27:26;24.80;60.80
24402;DHT22;12539;48.808;11.292;2022-07-21T04:29:51;24.80;60.40
24402;DHT22;12539;48.808;11.292;2022-07-21T04:32:17;24.80;60.50
24402;DHT22;12539;48.808;11.292;2022-07-21T04:34:43;24.80;60.20
24402;DHT22;12539;48.808;11.292;2022-07-21T04:37:09;24.90;60.00
24402;DHT22;12539;48.808;11.292;2022-07-21T04:39:34;25.00;60.00
24402;DHT22;12539;48.808;11.292;2022-07-21T04:42:00;25.00;59.80
24402;DHT22;12539;48.808;11.292;2022-07-21T04:44:26;25.00;59.70
24402;DHT22;12539;48.808;11.292;2022-07-21T04:46:51;25.10;59.90
24402;DHT22;12539;48.808;11.292;2022-07-21T04:49:17;25.10;59.70
24402;DHT22;12539;48.808;11.292;2022-07-21T04:51:46;25.10;59.90
24402;DHT22;12539;48.808;11.292;2022-07-21T04:54:11;25.10;60.20
24402;DHT22;12539;48.808;11.292;2022-07-21T04:56:42;25.10;60.60
24402;DHT22;12539;48.808;11.292;2022-07-21T04:59:09;25.10;61.20
24402;DHT22;12539;48.808;11.292;2022-07-21T05:01:36;25.10;61.60
24402;DHT22;12539;48.808;11.292;2022-07-21T05:04:02;25.00;62.20
24402;DHT22;12539;48.808;11.292;2022-07-21T05:06:28;24.90;63.00
24402;DHT22;12539;48.808;11.292;2022-07-21T05:08:54;24.70;64.00
24402;DHT22;12539;48.808;11.292;2022-07-21T05:11:20;24.50;65.60
24402;DHT22;12539;48.808;11.292;2022-07-21T05:13:45;24.30;67.70
24402;DHT22;12539;48.808;11.292;2022-07-21T05:16:11;24.10;69.80
24402;DHT22;12539;48.808;11.292;2022-07-21T05:18:37;23.80;71.60
24402;DHT22;12539;48.808;11.292;2022-07-21T05:21:03;23.50;73.20
24402;DHT22;12539;48.808;11.292;2022-07-21T05:23:29;23.20;75.40
24402;DHT22;12539;48.808;11.292;2022-07-21T05:25:55;23.10;77.50
24402;DHT22;12539;48.808;11.292;2022-07-21T05:28:20;23.10;79.50
24402;DHT22;12539;48.808;11.292;2022-07-21T05:30:46;23.10;81.10
24402;DHT22;12539;48.808;11.292;2022-07-21T05:33:12;23.10;81.80
24402;DHT22;12539;48.808;11.292;2022-07-21T05:35:37;23.30;82.90
24402;DHT22;12539;48.808;11.292;2022-07-21T05:38:03;23.40;82.40
24402;DHT22;12539;48.808;11.292;2022-07-21T05:40:29;23.50;82.40
24402;DHT22;12539;48.808;11.292;2022-07-21T05:42:58;23.70;81.80
24402;DHT22;12539;48.808;11.292;2022-07-21T05:45:23;23.90;81.80
24402;DHT22;12539;48.808;11.292;2022-07-21T05:47:49;23.90;81.20
24402;DHT22;12539;48.808;11.292;2022-07-21T05:50:15;24.00;81.10
24402;DHT22;12539;48.808;11.292;2022-07-21T05:52:41;24.10;80.60
24402;DHT22;12539;48.808;11.292;2022-07-21T05:55:07;24.30;80.10
24402;DHT22;12539;48.808;11.292;2022-07-21T05:57:33;24.40;79.20
24402;DHT22;12539;48.808;11.292;2022-07-21T05:59:59;24.60;78.50
24402;DHT22;12539;48.808;11.292;2022-07-21T06:02:25;24.80;77.60
24402;DHT22;12539;48.808;11.292;2022-07-21T06:04:51;25.00;76.20
24402;DHT22;12539;48.808;11.292;2022-07-21T06:07:17;25.20;75.20
24402;DHT22;12539;48.808;11.292;2022-07-21T06:09:43;25.30;74.10
24402;DHT22;12539;48.808;11.292;2022-07-21T06:12:09;25.40;73.30
24402;DHT22;12539;48.808;11.292;2022-07-21T06:14:35;25.60;72.60
24402;DHT22;12539;48.808;11.292;2022-07-21T06:17:00;25.70;71.70
24402;DHT22;12539;48.808;11.292;2022-07-21T06:21:52;25.90;70.30
24402;DHT22;12539;48.808;11.292;2022-07-21T06:24:17;26.00;69.30
24402;DHT22;12539;48.808;11.292;2022-07-21T06:26:45;26.00;68.90
24402;DHT22;12539;48.808;11.292;2022-07-21T06:29:11;26.00;68.80
24402;DHT22;12539;48.808;11.292;2022-07-21T06:31:37;26.00;68.40
24402;DHT22;12539;48.808;11.292;2022-07-21T06:36:28;26.00;68.70
24402;DHT22;12539;48.808;11.292;2022-07-21T06:38:54;26.00;68.70
24402;DHT22;12539;48.808;11.292;2022-07-21T06:41:20;26.00;68.80
24402;DHT22;12539;48.808;11.292;2022-07-21T06:43:45;26.10;68.50
24402;DHT22;12539;48.808;11.292;2022-07-21T06:46:11;26.20;68.00
24402;DHT22;12539;48.808;11.292;2022-07-21T06:48:37;26.20;67.50
24402;DHT22;12539;48.808;11.292;2022-07-21T06:51:02;26.20;67.40
24402;DHT22;12539;48.808;11.292;2022-07-21T06:55:53;26.50;66.90
24402;DHT22;12539;48.808;11.292;2022-07-21T06:58:22;26.70;66.00
24402;DHT22;12539;48.808;11.292;2022-07-21T07:00:49;26.90;64.70
24402;DHT22;12539;48.808;11.292;2022-07-21T07:03:16;27.20;63.60
24402;DHT22;12539;48.808;11.292;2022-07-21T07:05:44;27.40;62.80
24402;DHT22;12539;48.808;11.292;2022-07-21T07:08:10;27.30;63.10
24402;DHT22;12539;48.808;11.292;2022-07-21T07:10:36;27.50;62.60
24402;DHT22;12539;48.808;11.292;2022-07-21T07:13:02;27.70;61.70
24402;DHT22;12539;48.808;11.292;2022-07-21T07:15:28;28.00;61.00
24402;DHT22;12539;48.808;11.292;2022-07-21T07:17:54;28.10;60.50
24402;DHT22;12539;48.808;11.292;2022-07-21T07:20:20;28.00;60.50
24402;DHT22;12539;48.808;11.292;2022-07-21T07:22:46;27.80;61.20
24402;DHT22;12539;48.808;11.292;2022-07-21T07:25:12;27.60;61.80
24402;DHT22;12539;48.808;11.292;2022-07-21T07:27:43;27.40;62.40
24402;DHT22;12539;48.808;11.292;2022-07-21T07:30:09;27.30;63.00
24402;DHT22;12539;48.808;11.292;2022-07-21T07:32:35;27.00;63.80
24402;DHT22;12539;48.808;11.292;2022-07-21T07:35:01;27.00;64.10
24402;DHT22;12539;48.808;11.292;2022-07-21T07:37:26;27.10;63.70
24402;DHT22;12539;48.808;11.292;2022-07-21T07:39:52;27.20;63.60
24402;DHT22;12539;48.808;11.292;2022-07-21T07:42:18;27.10;63.70
24402;DHT22;12539;48.808;11.292;2022-07-21T07:44:44;27.00;64.00
24402;DHT22;12539;48.808;11.292;2022-07-21T07:47:12;27.00;64.20
24402;DHT22;12539;48.808;11.292;2022-07-21T07:49:38;27.20;64.70
24402;DHT22;12539;48.808;11.292;2022-07-21T07:52:03;27.30;64.50
24402;DHT22;12539;48.808;11.292;2022-07-21T07:54:31;27.30;64.40
24402;DHT22;12539;48.808;11.292;2022-07-21T07:56:56;27.50;62.90
24402;DHT22;12539;48.808;11.292;2022-07-21T07:59:22;27.80;62.40
24402;DHT22;12539;48.808;11.292;2022-07-21T08:01:48;28.10;61.40
24402;DHT22;12539;48.808;11.292;2022-07-21T08:04:13;28.50;59.70
24402;DHT22;12539;48.808;11.292;2022-07-21T08:06:40;29.00;57.90
24402;DHT22;12539;48.808;11.292;2022-07-21T08:09:07;29.20;57.00
24402;DHT22;12539;48.808;11.292;2022-07-21T08:11:32;29.30;57.10
24402;DHT22;12539;48.808;11.292;2022-07-21T08:13:58;29.10;57.50
24402;DHT22;12539;48.808;11.292;2022-07-21T08:18:49;28.70;59.00
24402;DHT22;12539;48.808;11.292;2022-07-21T08:21:15;28.40;59.60
24402;DHT22;12539;48.808;11.292;2022-07-21T08:23:40;28.10;60.50
24402;DHT22;12539;48.808;11.292;2022-07-21T08:26:06;27.80;61.40
24402;DHT22;12539;48.808;11.292;2022-07-21T08:28:32;27.50;62.80
24402;DHT22;12539;48.808;11.292;2022-07-21T08:30:58;27.30;64.00
24402;DHT22;12539;48.808;11.292;2022-07-21T08:33:23;27.10;64.70
24402;DHT22;12539;48.808;11.292;2022-07-21T08:35:49;27.00;65.20
24402;DHT22;12539;48.808;11.292;2022-07-21T08:38:15;26.90;65.30
24402;DHT22;12539;48.808;11.292;2022-07-21T08:40:43;27.00;65.60
24402;DHT22;12539;48.808;11.292;2022-07-21T08:43:09;26.90;66.10
24402;DHT22;12539;48.808;11.292;2022-07-21T08:45:36;26.90;65.90
24402;DHT22;12539;48.808;11.292;2022-07-21T08:48:03;27.00;66.00
24402;DHT22;12539;48.808;11.292;2022-07-21T08:50:33;27.10;65.90
24402;DHT22;12539;48.808;11.292;2022-07-21T08:52:59;27.00;66.20
24402;DHT22;12539;48.808;11.292;2022-07-21T08:55:29;26.80;66.50
24402;DHT22;12539;48.808;11.292;2022-07-21T08:57:55;26.70;67.30
24402;DHT22;12539;48.808;11.292;2022-07-21T09:00:21;26.70;67.80
24402;DHT22;12539;48.808;11.292;2022-07-21T09:02:47;26.70;67.50
24402;DHT22;12539;48.808;11.292;2022-07-21T09:05:13;26.90;67.50
24402;DHT22;12539;48.808;11.292;2022-07-21T09:07:48;27.00;67.00
24402;DHT22;12539;48.808;11.292;2022-07-21T09:10:15;27.20;66.80
24402;DHT22;12539;48.808;11.292;2022-07-21T09:12:58;27.30;66.20
24402;DHT22;12539;48.808;11.292;2022-07-21T09:15:26;27.60;64.90
24402;DHT22;12539;48.808;11.292;2022-07-21T09:18:12;27.70;64.90
24402;DHT22;12539;48.808;11.292;2022-07-21T09:20:49;28.00;64.50
24402;DHT22;12539;48.808;11.292;2022-07-21T09:23:18;28.30;63.70
24402;DHT22;12539;48.808;11.292;2022-07-21T09:25:46;28.60;62.20
24402;DHT22;12539;48.808;11.292;2022-07-21T09:28:15;28.70;62.10
24402;DHT22;12539;48.808;11.292;2022-07-21T09:33:50;28.70;60.70
24402;DHT22;12539;48.808;11.292;2022-07-21T09:36:17;28.50;61.30
24402;DHT22;12539;48.808;11.292;2022-07-21T09:38:50;28.30;61.60
24402;DHT22;12539;48.808;11.292;2022-07-21T09:41:19;28.20;62.10
24402;DHT22;12539;48.808;11.292;2022-07-21T09:43:55;28.10;62.40
24402;DHT22;12539;48.808;11.292;2022-07-21T09:46:25;28.00;62.30
24402;DHT22;12539;48.808;11.292;2022-07-21T09:48:54;28.00;62.80
24402;DHT22;12539;48.808;11.292;2022-07-21T09:51:35;28.10;62.80
24402;DHT22;12539;48.808;11.292;2022-07-21T09:54:05;28.20;63.40
24402;DHT22;12539;48.808;11.292;2022-07-21T09:56:33;28.20;63.50
24402;DHT22;12539;48.808;11.292;2022-07-21T09:59:01;28.30;63.10
24402;DHT22;12539;48.808;11.292;2022-07-21T10:01:28;28.50;62.20
24402;DHT22;12539;48.808;11.292;2022-07-21T10:03:55;28.80;61.30
24402;DHT22;12539;48.808;11.292;2022-07-21T10:06:27;29.00;60.30
24402;DHT22;12539;48.808;11.292;2022-07-21T10:08:55;29.10;59.70
24402;DHT22;12539;48.808;11.292;2022-07-21T10:11:22;29.10;58.90
24402;DHT22;12539;48.808;11.292;2022-07-21T10:13:48;29.20;59.20
24402;DHT22;12539;48.808;11.292;2022-07-21T10:16:15;29.50;58.80
24402;DHT22;12539;48.808;11.292;2022-07-21T10:18:56;29.60;58.20
24402;DHT22;12539;48.808;11.292;2022-07-21T10:23:57;29.70;57.80
24402;DHT22;12539;48.808;11.292;2022-07-21T10:26:24;29.70;58.10
24402;DHT22;12539;48.808;11.292;2022-07-21T10:28:49;29.80;58.00
24402;DHT22;12539;48.808;11.292;2022-07-21T10:31:24;29.90;57.70
24402;DHT22;12539;48.808;11.292;2022-07-21T10:33:53;29.90;57.00
24402;DHT22;12539;48.808;11.292;2022-07-21T10:47:06;30.30;55.60
24402;DHT22;12539;48.808;11.292;2022-07-21T10:57:40;30.50;54.60
24402;DHT22;12539;48.808;11.292;2022-07-21T11:00:34;30.60;54.10
24402;DHT22;12539;48.808;11.292;2022-07-21T11:03:15;30.70;53.90
24402;DHT22;12539;48.808;11.292;2022-07-21T11:08:40;30.60;54.30
24402;DHT22;12539;48.808;11.292;2022-07-21T11:11:14;30.50;54.90
24402;DHT22;12539;48.808;11.292;2022-07-21T11:24:33;30.80;53.20
24402;DHT22;12539;48.808;11.292;2022-07-21T11:27:02;30.80;53.00
24402;DHT22;12539;48.808;11.292;2022-07-21T11:29:29;30.80;52.50
24402;DHT22;12539;48.808;11.292;2022-07-21T11:31:55;31.10;52.20
24402;DHT22;12539;48.808;11.292;2022-07-21T11:34:22;31.20;51.10
24402;DHT22;12539;48.808;11.292;2022-07-21T11:36:58;31.10;50.60
24402;DHT22;12539;48.808;11.292;2022-07-21T11:39:25;31.30;50.60
24402;DHT22;12539;48.808;11.292;2022-07-21T11:41:51;31.20;50.40
24402;DHT22;12539;48.808;11.292;2022-07-21T11:44:24;31.20;50.50
24402;DHT22;12539;48.808;11.292;2022-07-21T11:46:57;31.40;50.20
24402;DHT22;12539;48.808;11.292;2022-07-21T11:49:23;31.40;50.30
24402;DHT22;12539;48.808;11.292;2022-07-21T11:56:57;31.60;49.40
24402;DHT22;12539;48.808;11.292;2022-07-21T11:59:23;31.50;49.30
24402;DHT22;12539;48.808;11.292;2022-07-21T12:01:57;31.30;49.90
24402;DHT22;12539;48.808;11.292;2022-07-21T12:07:15;30.90;50.90
24402;DHT22;12539;48.808;11.292;2022-07-21T12:09:43;30.50;51.80
24402;DHT22;12539;48.808;11.292;2022-07-21T12:12:09;30.30;52.60
24402;DHT22;12539;48.808;11.292;2022-07-21T12:14:47;30.20;53.00
24402;DHT22;12539;48.808;11.292;2022-07-21T12:17:15;30.00;53.00
24402;DHT22;12539;48.808;11.292;2022-07-21T12:19:42;29.90;53.70
24402;DHT22;12539;48.808;11.292;2022-07-21T12:22:08;29.80;53.50
24402;DHT22;12539;48.808;11.292;2022-07-21T12:24:53;29.80;53.60
24402;DHT22;12539;48.808;11.292;2022-07-21T12:27:20;30.00;53.80
24402;DHT22;12539;48.808;11.292;2022-07-21T12:29:45;30.20;53.30
24402;DHT22;12539;48.808;11.292;2022-07-21T12:32:12;30.50;52.80
24402;DHT22;12539;48.808;11.292;2022-07-21T12:34:51;30.80;52.20
24402;DHT22;12539;48.808;11.292;2022-07-21T12:37:17;31.00;51.20
24402;DHT22;12539;48.808;11.292;2022-07-21T12:39:59;31.30;51.00
24402;DHT22;12539;48.808;11.292;2022-07-21T12:42:33;31.50;49.50
24402;DHT22;12539;48.808;11.292;2022-07-21T12:45:19;31.50;49.60
24402;DHT22;12539;48.808;11.292;2022-07-21T12:48:06;31.70;49.40
24402;DHT22;12539;48.808;11.292;2022-07-21T12:50:33;31.70;48.80
24402;DHT22;12539;48.808;11.292;2022-07-21T12:52:58;31.50;49.60
24402;DHT22;12539;48.808;11.292;2022-07-21T12:55:24;31.30;49.60
24402;DHT22;12539;48.808;11.292;2022-07-21T12:57:50;31.10;49.90
24402;DHT22;12539;48.808;11.292;2022-07-21T13:00:16;31.00;50.70
24402;DHT22;12539;48.808;11.292;2022-07-21T13:02:46;30.90;51.30
24402;DHT22;12539;48.808;11.292;2022-07-21T13:05:12;30.90;51.20
24402;DHT22;12539;48.808;11.292;2022-07-21T13:07:38;30.90;50.40
24402;DHT22;12539;48.808;11.292;2022-07-21T13:10:04;31.00;50.30
24402;DHT22;12539;48.808;11.292;2022-07-21T13:12:31;31.00;50.00
24402;DHT22;12539;48.808;11.292;2022-07-21T13:14:57;31.10;50.30
24402;DHT22;12539;48.808;11.292;2022-07-21T13:17:22;31.30;50.00
24402;DHT22;12539;48.808;11.292;2022-07-21T13:19:48;31.50;49.30
24402;DHT22;12539;48.808;11.292;2022-07-21T13:22:14;31.70;48.80
24402;DHT22;12539;48.808;11.292;2022-07-21T13:24:39;31.80;48.40
24402;DHT22;12539;48.808;11.292;2022-07-21T13:27:05;31.70;48.20
24402;DHT22;12539;48.808;11.292;2022-07-21T13:29:31;31.60;48.30
24402;DHT22;12539;48.808;11.292;2022-07-21T13:31:57;31.50;48.40
24402;DHT22;12539;48.808;11.292;2022-07-21T13:34:22;31.40;48.30
24402;DHT22;12539;48.808;11.292;2022-07-21T13:36:48;31.10;48.60
24402;DHT22;12539;48.808;11.292;2022-07-21T13:39:14;30.80;49.20
24402;DHT22;12539;48.808;11.292;2022-07-21T13:41:40;30.60;49.70
24402;DHT22;12539;48.808;11.292;2022-07-21T13:44:06;30.60;50.10
24402;DHT22;12539;48.808;11.292;2022-07-21T13:46:32;30.60;50.00
24402;DHT22;12539;48.808;11.292;2022-07-21T13:48:58;30.50;50.60
24402;DHT22;12539;48.808;11.292;2022-07-21T13:51:23;30.40;50.80
24402;DHT22;12539;48.808;11.292;2022-07-21T13:53:50;30.30;50.40
24402;DHT22;12539;48.808;11.292;2022-07-21T13:56:16;30.20;50.30
24402;DHT22;12539;48.808;11.292;2022-07-21T13:58:43;30.20;51.30
24402;DHT22;12539;48.808;11.292;2022-07-21T14:01:09;30.40;51.40
24402;DHT22;12539;48.808;11.292;2022-07-21T14:03:36;30.40;50.60
24402;DHT22;12539;48.808;11.292;2022-07-21T14:06:02;30.70;49.00
24402;DHT22;12539;48.808;11.292;2022-07-21T14:08:28;30.80;48.40
24402;DHT22;12539;48.808;11.292;2022-07-21T14:10:54;30.90;48.50
24402;DHT22;12539;48.808;11.292;2022-07-21T14:13:20;31.00;48.10
24402;DHT22;12539;48.808;11.292;2022-07-21T14:15:46;31.10;47.80
24402;DHT22;12539;48.808;11.292;2022-07-21T14:18:12;31.10;48.30
24402;DHT22;12539;48.808;11.292;2022-07-21T14:20:38;31.00;47.90
24402;DHT22;12539;48.808;11.292;2022-07-21T14:23:04;31.00;47.60
24402;DHT22;12539;48.808;11.292;2022-07-21T14:25:30;30.90;48.10
24402;DHT22;12539;48.808;11.292;2022-07-21T14:27:57;30.90;48.00
24402;DHT22;12539;48.808;11.292;2022-07-21T14:30:25;30.90;47.90
24402;DHT22;12539;48.808;11.292;2022-07-21T14:32:52;30.90;47.90
24402;DHT22;12539;48.808;11.292;2022-07-21T14:35:18;30.90;47.90
24402;DHT22;12539;48.808;11.292;2022-07-21T14:37:46;30.90;47.70
24402;DHT22;12539;48.808;11.292;2022-07-21T14:40:14;31.00;48.80
24402;DHT22;12539;48.808;11.292;2022-07-21T14:42:40;31.10;48.00
24402;DHT22;12539;48.808;11.292;2022-07-21T14:45:06;31.10;47.40
24402;DHT22;12539;48.808;11.292;2022-07-21T14:47:33;31.20;47.10
24402;DHT22;12539;48.808;11.292;2022-07-21T14:49:59;31.30;46.80
24402;DHT22;12539;48.808;11.292;2022-07-21T14:52:25;31.50;46.50
24402;DHT22;12539;48.808;11.292;2022-07-21T14:54:51;31.50;46.70
24402;DHT22;12539;48.808;11.292;2022-07-21T14:57:16;31.60;46.50
24402;DHT22;12539;48.808;11.292;2022-07-21T14:59:42;31.40;46.90
24402;DHT22;12539;48.808;11.292;2022-07-21T15:02:08;31.30;47.10
24402;DHT22;12539;48.808;11.292;2022-07-21T15:04:34;31.40;46.60
24402;DHT22;12539;48.808;11.292;2022-07-21T15:07:00;31.30;46.10
24402;DHT22;12539;48.808;11.292;2022-07-21T15:09:26;31.40;46.60
24402;DHT22;12539;48.808;11.292;2022-07-21T15:11:51;31.40;46.70
24402;DHT22;12539;48.808;11.292;2022-07-21T15:14:17;31.40;47.30
24402;DHT22;12539;48.808;11.292;2022-07-21T15:16:43;31.30;46.40
24402;DHT22;12539;48.808;11.292;2022-07-21T15:19:09;31.20;46.80
24402;DHT22;12539;48.808;11.292;2022-07-21T15:21:35;31.30;46.80
24402;DHT22;12539;48.808;11.292;2022-07-21T15:24:01;31.30;46.50
24402;DHT22;12539;48.808;11.292;2022-07-21T15:26:27;31.30;45.70
24402;DHT22;12539;48.808;11.292;2022-07-21T15:28:53;31.20;46.20
24402;DHT22;12539;48.808;11.292;2022-07-21T15:31:18;31.20;46.20
24402;DHT22;12539;48.808;11.292;2022-07-21T15:33:44;31.20;46.30
24402;DHT22;12539;48.808;11.292;2022-07-21T15:36:10;31.30;46.20
24402;DHT22;12539;48.808;11.292;2022-07-21T15:38:36;31.30;46.10
24402;DHT22;12539;48.808;11.292;2022-07-21T15:41:02;31.30;45.60
24402;DHT22;12539;48.808;11.292;2022-07-21T15:43:30;31.30;45.40
24402;DHT22;12539;48.808;11.292;2022-07-21T15:45:56;31.30;45.30
24402;DHT22;12539;48.808;11.292;2022-07-21T15:48:22;31.30;45.10
24402;DHT22;12539;48.808;11.292;2022-07-21T15:50:48;31.30;45.10
24402;DHT22;12539;48.808;11.292;2022-07-21T15:53:13;31.10;45.30
24402;DHT22;12539;48.808;11.292;2022-07-21T15:55:40;31.00;45.90
24402;DHT22;12539;48.808;11.292;2022-07-21T15:58:05;30.90;46.20
24402;DHT22;12539;48.808;11.292;2022-07-21T16:00:34;30.90;46.40
24402;DHT22;12539;48.808;11.292;2022-07-21T16:03:00;30.80;46.40
24402;DHT22;12539;48.808;11.292;2022-07-21T16:05:26;30.70;46.20
24402;DHT22;12539;48.808;11.292;2022-07-21T16:07:53;30.80;46.50
24402;DHT22;12539;48.808;11.292;2022-07-21T16:10:21;30.90;46.60